www.nordhorn-wetter.com
Wetterdaten: aktuell Freitag, 08.05.2026 20:43
Datum Zeit Temp. A. BodenT -5cm Temp +10cm Extra Temp Feuchte A. BlattFeuchte Bod.Feu -5cm Luftdruck Regen Wind Richtung Richtung Sonnenschein ET UV Solar Taupunkt Windböen Empfang
08.05.2026 20:43 14,0 °C 15,0 °C 13,3 °C 14,0 °C 64 % 0 lf 14 cb 1018,1 hPa 0,0 mm 2,6 km/h (1 Bft) O 93 ° 1 min 0,102 mm 0,0 UV-I 14 W/m² 7,3 °C 6,4 km/h (2 Bft) 91,30 %
08.05.2026 19:43 15,1 °C 15,6 °C 13,9 °C 14,0 °C 60 % 0 lf 14 cb 1017,5 hPa 0,0 mm 5,5 km/h (2 Bft) O 84 ° 39 min 0,203 mm 0,0 UV-I 111 W/m² 7,4 °C 11,3 km/h (2 Bft) 91,30 %
08.05.2026 18:43 15,8 °C 16,1 °C 15,0 °C 14,0 °C 58 % 0 lf 14 cb 1017,3 hPa 0,0 mm 8,7 km/h (2 Bft) O 81 ° 52 min 0,254 mm 1,1 UV-I 290 W/m² 7,6 °C 14,5 km/h (3 Bft) 100,00 %
08.05.2026 17:45 16,2 °C 16,1 °C 15,0 °C 14,0 °C 57 % 0 lf 14 cb 1017,4 hPa 0,0 mm 5,7 km/h (2 Bft) O 81 ° 53 min 0,280 mm 2,1 UV-I 443 W/m² 7,7 °C 9,7 km/h (2 Bft) 100,00 %
08.05.2026 16:38 15,5 °C 16,1 °C 15,6 °C 14,0 °C 61 % 0 lf 14 cb 1017,7 hPa 0,0 mm 10,2 km/h (2 Bft) O-SO 106 ° 0 min 0,152 mm 2,0 UV-I 312 W/m² 8,0 °C 16,1 km/h (3 Bft) 97,67 %
08.05.2026 15:32 15,4 °C 16,1 °C 15,6 °C 14,0 °C 59 % 0 lf 15 cb 1017,8 hPa 0,0 mm 9,4 km/h (2 Bft) O 83 ° 0 min 0,203 mm 1,8 UV-I 282 W/m² 7,4 °C 12,9 km/h (3 Bft) 100,00 %
08.05.2026 14:34 15,6 °C 15,6 °C 16,7 °C 13,4 °C 57 % 0 lf 15 cb 1017,9 hPa 0,0 mm 6,6 km/h (2 Bft) O-NO 67 ° 12 min 0,330 mm 2,0 UV-I 243 W/m² 7,1 °C 9,7 km/h (2 Bft) 100,00 %
08.05.2026 13:35 16,4 °C 14,4 °C 19,4 °C 12,9 °C 55 % 0 lf 16 cb 1017,9 hPa 0,0 mm 12,1 km/h (2 Bft) O-NO 72 ° 48 min 0,483 mm 5,0 UV-I 988 W/m² 7,3 °C 17,7 km/h (3 Bft) 100,00 %
08.05.2026 12:37 16,8 °C 13,3 °C 21,7 °C 11,8 °C 50 % 0 lf 16 cb 1018,3 hPa 0,0 mm 8,3 km/h (2 Bft) O-SO 103 ° 60 min 0,432 mm 4,0 UV-I 810 W/m² 6,3 °C 14,5 km/h (3 Bft) 89,47 %
08.05.2026 11:39 14,8 °C 12,2 °C 17,2 °C 11,2 °C 52 % 0 lf 17 cb 1018,5 hPa 0,0 mm 9,4 km/h (2 Bft) O-SO 103 ° 60 min 0,355 mm 4,3 UV-I 736 W/m² 5,0 °C 17,7 km/h (3 Bft) 100,00 %
08.05.2026 10:39 13,5 °C 11,7 °C 13,9 °C 10,7 °C 57 % 0 lf 17 cb 1018,6 hPa 0,0 mm 10,8 km/h (2 Bft) O-SO 120 ° 60 min 0,254 mm 3,1 UV-I 635 W/m² 5,2 °C 17,7 km/h (3 Bft) 91,30 %
08.05.2026 09:40 12,4 °C 11,1 °C 11,7 °C 10,1 °C 73 % 0 lf 17 cb 1018,7 hPa 0,0 mm 9,6 km/h (2 Bft) O-NO 69 ° 58 min 0,102 mm 2,2 UV-I 500 W/m² 7,7 °C 14,5 km/h (3 Bft) 95,65 %
08.05.2026 08:35 10,3 °C 11,1 °C 9,4 °C 10,1 °C 84 % 0 lf 16 cb 1018,2 hPa 0,0 mm 8,9 km/h (2 Bft) O 89 ° 0 min 0,000 mm 3,7 UV-I 137 W/m² 7,7 °C 11,3 km/h (2 Bft) 95,65 %
08.05.2026 07:37 7,2 °C 11,1 °C 7,2 °C 10,1 °C 94 % 9 lf 16 cb 1018,0 hPa 0,0 mm 1,8 km/h (1 Bft) O 100 ° 0 min 0,000 mm 0,0 UV-I 0 W/m² 6,3 °C 3,2 km/h (1 Bft) 100,00 %
08.05.2026 06:37 5,6 °C 11,1 °C 5,6 °C 10,7 °C 95 % 15 lf 16 cb 1017,8 hPa 0,0 mm 7,2 km/h (2 Bft) O 99 ° 0 min 0,000 mm 0,0 UV-I 0 W/m² 4,9 °C 12,9 km/h (3 Bft) 95,00 %
08.05.2026 05:33 5,6 °C 11,7 °C 5,6 °C 10,7 °C 95 % 15 lf 15 cb 1017,6 hPa 0,0 mm 3,6 km/h (1 Bft) O 92 ° 0 min 0,000 mm 0,0 UV-I 0 W/m² 4,9 °C 4,8 km/h (1 Bft) 100,00 %
08.05.2026 04:35 5,9 °C 11,7 °C 5,6 °C 11,2 °C 95 % 15 lf 15 cb 1017,6 hPa 0,0 mm 2,7 km/h (1 Bft) O 90 ° 0 min 0,000 mm 0,0 UV-I 0 W/m² 5,2 °C 4,8 km/h (1 Bft) 86,96 %
08.05.2026 03:37 6,0 °C 12,2 °C 5,6 °C 11,2 °C 94 % 13 lf 14 cb 1017,7 hPa 0,0 mm 3,0 km/h (1 Bft) O 90 ° 0 min 0,000 mm 0,0 UV-I 0 W/m² 5,1 °C 6,4 km/h (2 Bft) 100,00 %
08.05.2026 02:39 6,2 °C 12,2 °C 6,1 °C 11,8 °C 93 % 10 lf 14 cb 1017,8 hPa 0,0 mm 0,0 km/h (0 Bft) O 91 ° 0 min 0,000 mm 0,0 UV-I 0 W/m² 5,2 °C 0,0 km/h (0 Bft) 100,00 %
08.05.2026 01:40 6,6 °C 12,8 °C 6,1 °C 11,8 °C 92 % 4 lf 13 cb 1017,7 hPa 0,0 mm 0,0 km/h (0 Bft) O 92 ° 0 min 0,000 mm 0,0 UV-I 0 W/m² 5,4 °C 0,0 km/h (0 Bft) 100,00 %
08.05.2026 00:42 7,3 °C 13,3 °C 6,7 °C 12,3 °C 91 % 1 lf 13 cb 1017,7 hPa 0,0 mm 2,9 km/h (1 Bft) O 91 ° 0 min 0,000 mm 0,0 UV-I 0 W/m² 5,9 °C 4,8 km/h (1 Bft) 91,67 %
08.05.2026 00:00 7,7 °C 13,3 °C 6,7 °C 12,3 °C 89 % 0 lf 13 cb 1017,6 hPa 0,0 mm 3,4 km/h (1 Bft) O-SO 111 ° 0 min 0,000 mm 0,0 UV-I 0 W/m² 6,0 °C 4,8 km/h (1 Bft) 86,96 %
_ Min-Zeit 06:15 10:20 06:31 09:52 12:39 20:43 01:47 18:54 - 20:40 - - - - - - 11:13 20:40 02:24
Minimum _ 5,3 °C 11,1 °C 5,0 °C 10,1 °C 49 % 0 lf 13 cb 1017,2 hPa - 0,0 km/h (0 Bft) - - - - - - 4,1 °C 0,0 km/h (0 Bft) 82,61 %
_ Max-Zeit 13:38 18:50 12:55 20:43 07:35 07:19 12:18 10:46 20:43 10:32 - - 09:31 13:02 13:09 14:19 17:06 16:49 20:41
Maximum _ 17,2 °C 16,1 °C 22,2 °C 14,0 °C 95 % 15 lf 17 cb 1018,7 hPa 0,0 mm 18,3 km/h
O (3 Bft)
- - 8 min 0,483 mm 5,3 UV-I 1007 W/m² 8,6 °C 24,1 km/h
O-NO (4 Bft)
100,00 %
Durchschnitt _ 11,5 °C 13,3 °C 11,7 °C 12,1 °C 74 % 4 lf 15 cb 1017,9 hPa #0,0 mm 5,8 km/h (2 Bft) O - #7:20 h #3,150 mm 2,6 UV-I 401 W/m² 6,4 °C 9,8 km/h (2 Bft) 96,77 %
© 2006-2026 Nordhorn-Wetter.com